createdAt,value
2022-09-12T00:01:20.817Z,36.80
2022-09-12T00:03:48.454Z,38.13
2022-09-12T00:06:24.165Z,36.95
2022-09-12T00:08:55.188Z,35.40
2022-09-12T00:11:22.743Z,33.25
2022-09-12T00:13:50.074Z,37.65
2022-09-12T00:16:24.751Z,35.15
2022-09-12T00:18:53.626Z,35.88
2022-09-12T00:21:22.478Z,34.88
2022-09-12T00:23:50.572Z,35.65
2022-09-12T00:26:19.038Z,39.80
2022-09-12T00:28:47.037Z,40.33
2022-09-12T00:31:18.322Z,33.72
2022-09-12T00:33:45.742Z,35.88
2022-09-12T00:36:17.943Z,33.50
2022-09-12T00:38:46.067Z,34.55
2022-09-12T00:41:28.032Z,38.55
2022-09-12T00:44:23.366Z,40.35
2022-09-12T00:47:10.399Z,38.30
2022-09-12T00:49:50.741Z,34.97
2022-09-12T00:52:44.391Z,33.08
2022-09-12T00:55:19.424Z,39.25
2022-09-12T00:58:14.608Z,38.58
2022-09-12T01:00:41.810Z,32.33
2022-09-12T01:03:16.226Z,38.03
2022-09-12T01:05:59.281Z,37.70
2022-09-12T01:08:28.839Z,29.55
2022-09-12T01:10:57.677Z,41.83
2022-09-12T01:13:25.582Z,41.17
2022-09-12T01:15:54.254Z,30.83
2022-09-12T01:18:51.092Z,38.80
2022-09-12T01:21:30.913Z,33.33
2022-09-12T01:24:46.047Z,36.33
2022-09-12T01:27:51.028Z,35.47
2022-09-12T01:30:51.510Z,37.83
2022-09-12T01:33:40.062Z,33.63
2022-09-12T01:36:29.890Z,36.22
2022-09-12T01:39:10.146Z,33.30
2022-09-12T01:42:11.709Z,36.40
2022-09-12T01:45:02.925Z,28.17
2022-09-12T01:47:43.854Z,35.47
2022-09-12T01:50:21.658Z,37.65
2022-09-12T01:52:58.146Z,35.50
2022-09-12T01:55:40.628Z,38.03
2022-09-12T01:58:13.118Z,30.88
2022-09-12T02:01:10.484Z,34.92
2022-09-12T02:03:49.116Z,34.03
2022-09-12T02:06:35.589Z,31.40
2022-09-12T02:09:19.565Z,34.75
2022-09-12T02:11:52.397Z,30.40
2022-09-12T02:14:26.703Z,33.10
2022-09-12T02:17:19.226Z,31.73
2022-09-12T02:19:58.112Z,32.47
2022-09-12T02:22:29.249Z,31.90
2022-09-12T02:25:01.080Z,31.63
2022-09-12T02:27:47.113Z,29.23
2022-09-12T02:30:16.515Z,25.75
2022-09-12T02:33:01.280Z,26.02
2022-09-12T02:35:50.506Z,25.33
2022-09-12T02:38:40.316Z,34.15
2022-09-12T02:41:07.341Z,31.45
2022-09-12T02:43:34.474Z,25.23
2022-09-12T02:46:01.465Z,30.52
2022-09-12T02:48:34.896Z,29.73
2022-09-12T02:51:03.097Z,28.50
2022-09-12T02:53:30.243Z,31.38
2022-09-12T02:55:57.882Z,30.25
2022-09-12T02:58:31.370Z,35.65
2022-09-12T03:01:23.965Z,31.35
2022-09-12T03:04:26.834Z,34.53
2022-09-12T03:07:34.223Z,31.40
2022-09-12T03:10:33.045Z,32.90
2022-09-12T03:13:17.908Z,29.48
2022-09-12T03:15:56.776Z,30.60
2022-09-12T03:19:23.556Z,29.27
2022-09-12T03:22:05.943Z,32.20
2022-09-12T03:24:41.137Z,24.65
2022-09-12T03:30:00.153Z,29.58
2022-09-12T03:32:49.503Z,35.72
2022-09-12T03:35:23.012Z,32.85
2022-09-12T03:37:52.357Z,31.77
2022-09-12T03:40:20.052Z,28.48
2022-09-12T03:42:46.944Z,27.02
2022-09-12T03:45:16.161Z,27.10
2022-09-12T03:47:43.110Z,32.88
2022-09-12T03:50:10.180Z,32.28
2022-09-12T03:52:37.654Z,30.65
2022-09-12T03:55:05.657Z,28.95
2022-09-12T03:57:32.532Z,33.47
2022-09-12T03:59:59.444Z,34.17
2022-09-12T04:02:26.326Z,29.05
2022-09-12T04:04:53.140Z,34.28
2022-09-12T04:07:20.432Z,33.72
2022-09-12T04:09:47.393Z,25.55
2022-09-12T04:12:14.290Z,32.60
2022-09-12T04:15:07.991Z,26.67
2022-09-12T04:17:35.500Z,31.50
2022-09-12T04:20:02.767Z,35.90
2022-09-12T04:22:31.905Z,35.97
2022-09-12T04:24:58.732Z,32.33
2022-09-12T04:27:25.691Z,32.53
2022-09-12T04:29:54.790Z,31.20
2022-09-12T04:32:22.368Z,30.52
2022-09-12T04:34:49.534Z,31.98
2022-09-12T04:37:16.874Z,33.25
2022-09-12T04:39:43.742Z,34.10
2022-09-12T04:42:10.668Z,36.10
2022-09-12T04:44:37.630Z,36.03
2022-09-12T04:47:04.617Z,33.15
2022-09-12T04:49:31.825Z,33.67
2022-09-12T04:51:59.361Z,35.03
2022-09-12T04:54:26.691Z,36.28
2022-09-12T04:56:54.865Z,32.55
2022-09-12T04:59:23.509Z,33.17
2022-09-12T05:01:50.501Z,33.72
2022-09-12T05:04:18.273Z,34.85
2022-09-12T05:06:55.445Z,36.17
2022-09-12T05:09:26.959Z,31.08
2022-09-12T05:12:09.187Z,39.00
2022-09-12T05:14:36.240Z,45.58
2022-09-12T05:17:06.013Z,45.50
2022-09-12T05:19:34.491Z,41.35
2022-09-12T05:22:01.506Z,45.15
2022-09-12T05:24:28.894Z,45.78
2022-09-12T05:26:55.815Z,41.30
2022-09-12T05:29:22.764Z,39.58
2022-09-12T05:31:52.002Z,39.17
2022-09-12T05:34:23.489Z,38.13
2022-09-12T05:36:50.397Z,42.05
2022-09-12T05:39:18.514Z,45.53
2022-09-12T05:41:45.741Z,45.35
2022-09-12T05:44:14.494Z,42.88
2022-09-12T05:46:57.648Z,45.63
2022-09-12T05:49:24.706Z,41.38
2022-09-12T05:51:51.635Z,43.20
2022-09-12T05:54:20.532Z,47.90
2022-09-12T05:56:48.333Z,46.42
2022-09-12T05:59:21.437Z,46.67
2022-09-12T06:01:49.155Z,46.28
2022-09-12T06:04:16.467Z,46.95
2022-09-12T06:06:45.629Z,49.53
2022-09-12T06:09:15.280Z,45.80
2022-09-12T06:11:43.964Z,47.55
2022-09-12T06:14:15.963Z,47.92
2022-09-12T06:16:43.154Z,47.95
2022-09-12T06:19:20.238Z,45.13
2022-09-12T06:21:49.782Z,44.65
2022-09-12T06:24:18.922Z,47.00
2022-09-12T06:26:47.675Z,47.35
2022-09-12T06:29:15.904Z,45.90
2022-09-12T06:31:44.013Z,48.47
2022-09-12T06:34:14.065Z,47.40
2022-09-12T06:36:44.386Z,50.90
2022-09-12T06:39:18.324Z,46.92
2022-09-12T06:41:45.652Z,46.85
2022-09-12T06:44:24.534Z,45.72
2022-09-12T06:46:53.619Z,47.33
2022-09-12T06:49:20.637Z,46.05
2022-09-12T06:51:48.897Z,46.28
2022-09-12T06:54:17.320Z,45.70
2022-09-12T06:56:44.860Z,45.65
2022-09-12T06:59:12.630Z,44.85
2022-09-12T07:01:41.723Z,43.25
2022-09-12T07:04:12.306Z,41.30
2022-09-12T07:06:45.565Z,39.95
2022-09-12T07:09:18.221Z,43.85
2022-09-12T07:11:46.419Z,41.08
2022-09-12T07:14:16.904Z,38.80
2022-09-12T07:16:46.995Z,39.22
2022-09-12T07:19:21.559Z,37.13
2022-09-12T07:21:48.691Z,39.80
2022-09-12T07:24:16.285Z,38.35
2022-09-12T07:26:44.002Z,39.30
2022-09-12T07:29:36.616Z,38.17
2022-09-12T07:32:06.248Z,39.17
2022-09-12T07:34:34.032Z,40.47
2022-09-12T07:37:00.981Z,38.63
2022-09-12T07:39:33.719Z,40.47
2022-09-12T07:42:03.196Z,38.17
2022-09-12T07:44:30.204Z,37.38
2022-09-12T07:47:04.749Z,34.35
2022-09-12T07:49:37.267Z,34.30
2022-09-12T07:52:10.513Z,29.65
2022-09-12T07:54:37.427Z,32.10
2022-09-12T07:57:04.416Z,34.65
2022-09-12T07:59:51.310Z,33.35
2022-09-12T08:02:18.549Z,28.85
2022-09-12T08:04:46.863Z,28.13
2022-09-12T08:07:14.568Z,23.73
2022-09-12T08:09:41.563Z,26.50
2022-09-12T08:12:08.794Z,28.85
2022-09-12T08:14:35.819Z,26.05
2022-09-12T08:17:02.831Z,25.42
2022-09-12T08:19:30.032Z,26.35
2022-09-12T08:21:57.086Z,26.38
2022-09-12T08:24:25.078Z,24.83
2022-09-12T08:26:58.917Z,24.08
2022-09-12T08:29:26.024Z,23.60
2022-09-12T08:31:57.184Z,21.20
2022-09-12T08:34:24.897Z,21.27
2022-09-12T08:36:54.248Z,20.85
2022-09-12T08:39:22.091Z,19.90
2022-09-12T08:42:06.669Z,17.92
2022-09-12T08:45:11.673Z,17.00
2022-09-12T08:47:46.047Z,15.90
2022-09-12T08:50:18.924Z,17.70
2022-09-12T08:53:10.075Z,14.15
2022-09-12T08:55:44.645Z,15.23
2022-09-12T09:01:01.896Z,14.10
2022-09-12T09:04:18.153Z,14.02
2022-09-12T09:09:36.140Z,10.47
2022-09-12T09:12:44.166Z,9.65
2022-09-12T09:15:58.851Z,9.77
2022-09-12T09:18:32.732Z,7.90
2022-09-12T09:21:14.859Z,7.60
2022-09-12T09:23:48.382Z,8.02
2022-09-12T09:26:26.653Z,7.30
2022-09-12T09:29:05.949Z,8.43
2022-09-12T09:31:39.060Z,6.78
2022-09-12T09:34:32.160Z,4.78
2022-09-12T09:37:14.017Z,4.93
2022-09-12T09:40:08.278Z,4.95
2022-09-12T09:43:06.217Z,4.68
2022-09-12T09:45:33.119Z,5.05
2022-09-12T09:48:30.346Z,5.28
2022-09-12T09:51:03.528Z,5.20
2022-09-12T09:53:50.331Z,5.93
2022-09-12T09:56:30.171Z,5.10
2022-09-12T09:58:57.368Z,4.88
2022-09-12T10:01:27.772Z,4.90
2022-09-12T10:03:56.776Z,4.22
2022-09-12T10:06:34.310Z,4.38
2022-09-12T10:09:15.806Z,4.53
2022-09-12T10:11:45.882Z,3.90
2022-09-12T10:14:40.738Z,4.40
2022-09-12T10:17:39.904Z,4.15
2022-09-12T10:20:31.455Z,4.13
2022-09-12T10:23:30.214Z,3.90
2022-09-12T10:26:04.141Z,3.67
2022-09-12T10:28:39.870Z,3.45
2022-09-12T10:31:16.573Z,3.55
2022-09-12T10:33:52.761Z,3.17
2022-09-12T10:36:21.525Z,2.80
2022-09-12T10:38:57.040Z,2.53
2022-09-12T10:41:24.931Z,2.15
2022-09-12T10:43:51.846Z,2.25
2022-09-12T10:46:19.217Z,2.60
2022-09-12T10:48:49.245Z,2.35
2022-09-12T10:51:25.420Z,2.30
2022-09-12T10:53:57.175Z,2.08
2022-09-12T10:56:26.295Z,1.92
2022-09-12T10:58:56.171Z,2.00
2022-09-12T11:01:41.355Z,2.35
2022-09-12T11:04:39.743Z,2.30
2022-09-12T11:07:40.599Z,1.55
2022-09-12T11:10:37.357Z,1.75
2022-09-12T11:13:32.485Z,1.40
2022-09-12T11:16:17.565Z,1.50
2022-09-12T11:18:56.064Z,1.80
2022-09-12T11:22:36.433Z,1.70
2022-09-12T11:25:30.966Z,1.35
2022-09-12T11:28:37.509Z,1.75
2022-09-12T11:31:40.483Z,1.58
2022-09-12T11:34:16.382Z,1.70
2022-09-12T11:37:31.634Z,1.30
2022-09-12T11:40:20.542Z,1.63
2022-09-12T11:42:54.484Z,1.40
2022-09-12T11:45:44.098Z,1.50
2022-09-12T11:48:40.180Z,1.50
2022-09-12T11:51:21.173Z,1.60
2022-09-12T11:54:09.503Z,1.70
2022-09-12T11:56:44.620Z,1.60
2022-09-12T11:59:23.863Z,1.48
2022-09-12T12:01:59.164Z,1.42
2022-09-12T12:04:39.640Z,1.45
2022-09-12T12:07:11.182Z,1.38
2022-09-12T12:09:52.349Z,1.30
2022-09-12T12:12:28.963Z,1.30
2022-09-12T12:14:58.967Z,1.20
2022-09-12T12:17:27.300Z,1.33
2022-09-12T12:20:07.636Z,1.42
2022-09-12T12:22:35.957Z,1.35
2022-09-12T12:25:07.021Z,1.20
2022-09-12T12:27:55.102Z,1.33
2022-09-12T12:30:31.433Z,1.27
2022-09-12T12:33:14.645Z,1.30
2022-09-12T12:35:46.775Z,1.42
2022-09-12T12:38:37.181Z,1.20
2022-09-12T12:41:19.285Z,1.10
2022-09-12T12:43:57.603Z,1.20
2022-09-12T12:46:30.944Z,1.42
2022-09-12T12:49:27.857Z,1.13
2022-09-12T12:51:54.708Z,1.00
2022-09-12T12:54:49.706Z,1.20
2022-09-12T12:57:26.100Z,1.10
2022-09-12T13:00:25.557Z,1.20
2022-09-12T13:03:05.985Z,1.10
2022-09-12T13:05:47.481Z,1.00
2022-09-12T13:08:17.215Z,1.27
2022-09-12T13:11:14.528Z,1.30
2022-09-12T13:13:58.466Z,1.00
2022-09-12T13:16:38.613Z,1.30
2022-09-12T13:19:18.430Z,1.00
2022-09-12T13:22:09.160Z,0.90
2022-09-12T13:24:53.579Z,1.10
2022-09-12T13:27:25.763Z,1.10
2022-09-12T13:30:15.136Z,1.17
2022-09-12T13:32:43.939Z,1.20
2022-09-12T13:35:33.761Z,1.23
2022-09-12T13:38:34.873Z,1.10
2022-09-12T13:41:53.240Z,0.90
2022-09-12T13:44:23.751Z,0.90
2022-09-12T13:46:52.237Z,1.02
2022-09-12T13:49:35.214Z,1.40
2022-09-12T13:52:21.220Z,1.23
2022-09-12T13:54:53.823Z,1.10
2022-09-12T13:57:42.426Z,1.20
2022-09-12T14:00:22.384Z,0.95
2022-09-12T14:02:50.190Z,1.00
2022-09-12T14:05:25.006Z,0.93
2022-09-12T14:10:38.000Z,1.20
2022-09-12T14:13:13.862Z,1.02
2022-09-12T14:15:48.518Z,1.40
2022-09-12T14:18:24.587Z,1.00
2022-09-12T14:20:56.892Z,1.10
2022-09-12T14:23:33.166Z,1.20
2022-09-12T14:26:06.575Z,0.90
2022-09-12T14:28:34.350Z,0.90
2022-09-12T14:31:31.467Z,1.20
2022-09-12T14:34:15.371Z,0.98
2022-09-12T14:36:50.015Z,0.87
2022-09-12T14:39:42.668Z,0.88
2022-09-12T14:42:16.446Z,0.70
2022-09-12T14:44:57.539Z,0.90
2022-09-12T14:47:31.270Z,0.80
2022-09-12T14:49:58.258Z,0.80
2022-09-12T14:52:33.196Z,0.70
2022-09-12T14:55:31.362Z,0.90
2022-09-12T14:58:28.525Z,0.80
2022-09-12T15:01:07.990Z,1.00
2022-09-12T15:03:49.259Z,0.70
2022-09-12T15:06:32.974Z,0.82
2022-09-12T15:09:13.690Z,0.60
2022-09-12T15:11:40.632Z,0.73
2022-09-12T15:14:14.368Z,1.00
2022-09-12T15:16:41.756Z,1.10
2022-09-12T15:19:08.713Z,1.00
2022-09-12T15:21:35.697Z,1.00
2022-09-12T15:24:03.469Z,0.88
2022-09-12T15:26:31.716Z,0.95
2022-09-12T15:28:58.670Z,0.88
2022-09-12T15:31:31.597Z,0.88
2022-09-12T15:34:01.155Z,0.98
2022-09-12T15:36:29.095Z,0.80
2022-09-12T15:38:56.601Z,1.20
2022-09-12T15:41:32.676Z,0.95
2022-09-12T15:43:59.715Z,1.00
2022-09-12T15:46:27.180Z,1.05
2022-09-12T15:48:54.097Z,0.98
2022-09-12T15:51:22.371Z,1.00
2022-09-12T15:53:51.041Z,0.95
2022-09-12T15:56:21.189Z,0.70
2022-09-12T15:58:58.845Z,1.23
2022-09-12T16:01:28.806Z,1.00
2022-09-12T16:03:55.969Z,0.88
2022-09-12T16:06:23.542Z,1.00
2022-09-12T16:08:50.671Z,1.00
2022-09-12T16:11:23.342Z,0.90
2022-09-12T16:13:55.649Z,1.10
2022-09-12T16:16:22.916Z,0.95
2022-09-12T16:18:49.839Z,0.88
2022-09-12T16:21:16.821Z,0.90
2022-09-12T16:23:45.476Z,1.00
2022-09-12T16:26:12.447Z,1.10
2022-09-12T16:28:40.454Z,1.00
2022-09-12T16:31:10.268Z,1.10
2022-09-12T16:33:41.144Z,0.98
2022-09-12T16:36:11.853Z,1.05
2022-09-12T16:38:53.013Z,1.20
2022-09-12T16:41:29.411Z,1.13
2022-09-12T16:43:56.479Z,0.95
2022-09-12T16:46:30.668Z,1.13
2022-09-12T16:48:59.241Z,1.30
2022-09-12T16:51:33.566Z,1.00
2022-09-12T16:54:03.019Z,1.15
2022-09-12T16:56:30.533Z,1.00
2022-09-12T16:58:57.415Z,1.10
2022-09-12T17:01:26.377Z,1.08
2022-09-12T17:03:58.400Z,1.08
2022-09-12T17:06:26.929Z,1.20
2022-09-12T17:08:58.181Z,1.23
2022-09-12T17:11:36.425Z,1.30
2022-09-12T17:14:07.256Z,1.25
2022-09-12T17:16:41.839Z,1.10
2022-09-12T17:19:16.306Z,1.13
2022-09-12T17:21:45.042Z,1.25
2022-09-12T17:24:11.964Z,1.42
2022-09-12T17:26:39.038Z,1.33
2022-09-12T17:29:06.202Z,1.92
2022-09-12T17:31:33.472Z,1.48
2022-09-12T17:34:02.235Z,2.00
2022-09-12T17:36:31.889Z,1.80
2022-09-12T17:38:59.807Z,1.85
2022-09-12T17:41:31.863Z,1.85
2022-09-12T17:44:01.397Z,1.50
2022-09-12T17:46:38.390Z,1.80
2022-09-12T17:49:15.668Z,1.50
2022-09-12T17:51:43.936Z,1.70
2022-09-12T17:54:15.657Z,1.70
2022-09-12T17:56:45.513Z,1.65
2022-09-12T17:59:22.884Z,1.70
2022-09-12T18:02:11.381Z,1.75
2022-09-12T18:04:39.141Z,1.90
2022-09-12T18:07:06.529Z,1.80
2022-09-12T18:09:33.625Z,2.20
2022-09-12T18:12:00.855Z,1.73
2022-09-12T18:14:28.804Z,1.88
2022-09-12T18:17:00.168Z,1.73
2022-09-12T18:19:28.860Z,1.70
2022-09-12T18:21:56.894Z,1.90
2022-09-12T18:24:24.396Z,1.90
2022-09-12T18:26:51.369Z,1.55
2022-09-12T18:29:20.233Z,1.90
2022-09-12T18:31:50.328Z,2.33
2022-09-12T18:34:28.296Z,2.15
2022-09-12T18:36:55.603Z,1.85
2022-09-12T18:39:27.552Z,1.98
2022-09-12T18:41:57.582Z,1.98
2022-09-12T18:44:24.724Z,2.28
2022-09-12T18:46:54.672Z,2.30
2022-09-12T18:49:24.880Z,2.22
2022-09-12T18:51:57.330Z,2.10
2022-09-12T18:54:33.409Z,3.17
2022-09-12T18:57:00.846Z,2.00
2022-09-12T18:59:27.866Z,1.85
2022-09-12T19:01:54.889Z,1.88
2022-09-12T19:04:22.247Z,2.45
2022-09-12T19:06:50.569Z,2.40
2022-09-12T19:09:20.950Z,2.45
2022-09-12T19:11:49.981Z,2.05
2022-09-12T19:14:29.127Z,2.42
2022-09-12T19:16:56.025Z,2.70
2022-09-12T19:19:23.014Z,2.35
2022-09-12T19:21:50.239Z,2.38
2022-09-12T19:24:17.329Z,2.20
2022-09-12T19:26:44.733Z,2.72
2022-09-12T19:29:13.773Z,2.65
2022-09-12T19:31:41.079Z,2.40
2022-09-12T19:34:08.367Z,2.58
2022-09-12T19:36:51.411Z,2.65
2022-09-12T19:39:19.853Z,2.58
2022-09-12T19:41:47.924Z,2.55
2022-09-12T19:44:14.861Z,2.58
2022-09-12T19:46:41.915Z,2.40
2022-09-12T19:49:11.711Z,2.50
2022-09-12T19:51:39.007Z,2.45
2022-09-12T19:54:06.150Z,2.55
2022-09-12T19:56:33.041Z,2.70
2022-09-12T19:59:00.162Z,2.53
2022-09-12T20:01:30.599Z,2.60
2022-09-12T20:03:58.917Z,2.65
2022-09-12T20:06:27.390Z,2.35
2022-09-12T20:08:55.423Z,2.47
2022-09-12T20:11:24.568Z,2.40
2022-09-12T20:13:52.070Z,2.55
2022-09-12T20:16:24.660Z,2.80
2022-09-12T20:19:17.975Z,2.40
2022-09-12T20:21:46.015Z,2.70
2022-09-12T20:24:15.873Z,2.38
2022-09-12T20:26:43.236Z,2.45
2022-09-12T20:29:11.015Z,2.75
2022-09-12T20:31:40.583Z,2.60
2022-09-12T20:34:16.650Z,2.70
2022-09-12T20:36:43.938Z,2.70
2022-09-12T20:39:22.747Z,3.00
2022-09-12T20:41:50.107Z,3.25
2022-09-12T20:44:17.376Z,2.90
2022-09-12T20:46:44.520Z,3.22
2022-09-12T20:49:11.622Z,3.65
2022-09-12T20:51:38.914Z,3.13
2022-09-12T20:54:07.364Z,3.50
2022-09-12T20:56:36.675Z,3.30
2022-09-12T20:59:05.390Z,3.13
2022-09-12T21:01:33.841Z,3.13
2022-09-12T21:04:01.494Z,2.90
2022-09-12T21:06:28.984Z,2.60
2022-09-12T21:12:11.432Z,3.60
2022-09-12T21:14:38.467Z,3.22
2022-09-12T21:17:05.374Z,3.08
2022-09-12T21:19:32.407Z,3.50
2022-09-12T21:21:59.424Z,3.50
2022-09-12T21:24:26.290Z,3.60
2022-09-12T21:26:53.193Z,2.97
2022-09-12T21:29:20.688Z,3.25
2022-09-12T21:31:47.562Z,3.53
2022-09-12T21:34:14.452Z,3.17
2022-09-12T21:36:41.335Z,3.10
2022-09-12T21:39:08.207Z,3.33
2022-09-12T21:41:35.187Z,2.97
2022-09-12T21:44:02.557Z,3.20
2022-09-12T21:46:29.624Z,3.20
2022-09-12T21:48:56.429Z,3.08
2022-09-12T21:51:23.233Z,3.38
2022-09-12T21:53:50.119Z,3.10
2022-09-12T21:56:17.557Z,2.90
2022-09-12T21:58:44.517Z,3.17
2022-09-12T22:01:12.562Z,3.30
2022-09-12T22:03:39.821Z,3.30
2022-09-12T22:06:07.499Z,3.75
2022-09-12T22:08:37.422Z,3.83
2022-09-12T22:11:09.627Z,4.00
2022-09-12T22:13:43.863Z,4.13
2022-09-12T22:16:12.108Z,3.90
2022-09-12T22:18:39.150Z,4.10
2022-09-12T22:21:12.731Z,4.68
2022-09-12T22:23:58.584Z,4.25
2022-09-12T22:26:27.070Z,4.45
2022-09-12T22:28:54.452Z,4.47
2022-09-12T22:31:22.229Z,4.93
2022-09-12T22:33:49.955Z,4.30
2022-09-12T22:36:17.571Z,4.47
2022-09-12T22:38:44.442Z,4.90
2022-09-12T22:41:12.409Z,4.40
2022-09-12T22:43:39.413Z,4.63
2022-09-12T22:46:09.512Z,4.10
2022-09-12T22:48:37.752Z,4.80
2022-09-12T22:51:05.899Z,5.15
2022-09-12T22:53:33.098Z,5.05
2022-09-12T22:56:00.261Z,4.68
2022-09-12T22:58:27.782Z,4.65
2022-09-12T23:00:55.089Z,4.20
2022-09-12T23:03:22.260Z,3.97
2022-09-12T23:05:49.300Z,3.80
2022-09-12T23:08:19.322Z,4.18
2022-09-12T23:10:46.740Z,4.05
2022-09-12T23:13:13.809Z,4.30
2022-09-12T23:15:41.033Z,4.13
2022-09-12T23:18:08.432Z,3.92
2022-09-12T23:20:35.416Z,3.80
2022-09-12T23:23:02.314Z,3.88
2022-09-12T23:25:29.218Z,4.00
2022-09-12T23:27:56.019Z,3.50
2022-09-12T23:30:22.926Z,3.78
2022-09-12T23:32:49.841Z,4.07
2022-09-12T23:35:20.585Z,3.63
2022-09-12T23:37:47.762Z,3.58
2022-09-12T23:40:14.950Z,3.60
2022-09-12T23:42:41.968Z,4.00
2022-09-12T23:45:10.306Z,3.50
2022-09-12T23:47:37.276Z,3.30
2022-09-12T23:50:04.630Z,3.70
2022-09-12T23:52:31.505Z,4.00
2022-09-12T23:54:59.146Z,3.58
2022-09-12T23:57:26.028Z,4.05
2022-09-12T23:59:52.814Z,3.10
